Baker, Illinois
Current Conditions -  °F | °C
As of 2:06 PM on Sunday 25 Jan 2015 (Local Time) from KARR Reporting Station
Light Snow Light Snow  
Wind Chill: 16°   Ceiling: 2100
Heat Index: 29°   Visibility: 3mi
Dew Point: 21°   Wind: 18mph
Humidity: 72%   Direction: 30°NNE
Pressure: 29.82"   Gusts: 29mph
Location:  41.5827°N, 88.7731°W
Report Text: KARR 252006Z 03016G25KT 3SM -SN BKN021 BKN027 OVC040 M02/M06 A2982 RMK AO2 PK WND 02026/2002 P0000 T10171061 $
Loading
Personal Weather Stations






























Interactive Weather Map New forecast layout! Learn more

10-Day Weather Forecast

Advertisements
Track Severe Weather on mobile